createdAt,value
2023-03-24T00:01:11.976Z,16.08
2023-03-24T00:03:40.476Z,16.09
2023-03-24T00:06:09.409Z,16.11
2023-03-24T00:08:38.342Z,16.09
2023-03-24T00:11:09.094Z,16.10
2023-03-24T00:13:38.395Z,16.02
2023-03-24T00:16:08.172Z,16.05
2023-03-24T00:18:39.782Z,16.08
2023-03-24T00:21:10.809Z,16.11
2023-03-24T00:23:42.993Z,16.13
2023-03-24T00:26:15.452Z,16.09
2023-03-24T00:28:45.826Z,16.14
2023-03-24T00:31:15.756Z,16.15
2023-03-24T00:33:50.657Z,16.18
2023-03-24T00:36:20.609Z,16.21
2023-03-24T00:38:50.173Z,16.23
2023-03-24T00:41:20.505Z,16.24
2023-03-24T00:43:49.482Z,16.27
2023-03-24T00:46:27.907Z,16.24
2023-03-24T00:49:02.087Z,16.26
2023-03-24T00:51:32.976Z,16.30
2023-03-24T00:54:01.997Z,16.27
2023-03-24T00:56:32.236Z,16.16
2023-03-24T00:59:02.535Z,16.27
2023-03-24T01:01:34.850Z,16.25
2023-03-24T01:04:06.381Z,16.26
2023-03-24T01:06:36.568Z,16.27
2023-03-24T01:09:06.183Z,16.27
2023-03-24T01:11:39.739Z,16.29
2023-03-24T01:14:08.109Z,16.27
2023-03-24T01:16:36.074Z,16.32
2023-03-24T01:19:06.722Z,16.30
2023-03-24T01:21:35.866Z,16.29
2023-03-24T01:24:05.026Z,16.30
2023-03-24T01:26:32.888Z,16.30
2023-03-24T01:29:01.141Z,16.34
2023-03-24T01:31:28.999Z,16.36
2023-03-24T01:33:56.868Z,16.39
2023-03-24T01:36:26.290Z,16.39
2023-03-24T01:38:54.183Z,16.46
2023-03-24T01:41:21.966Z,16.40
2023-03-24T01:43:50.284Z,16.42
2023-03-24T01:46:19.821Z,16.45
2023-03-24T01:48:51.590Z,16.52
2023-03-24T01:51:24.170Z,16.53
2023-03-24T01:53:58.655Z,16.55
2023-03-24T01:56:28.476Z,16.56
2023-03-24T01:59:00.716Z,16.51
2023-03-24T02:01:30.674Z,16.60
2023-03-24T02:03:59.475Z,16.62
2023-03-24T02:06:28.893Z,16.60
2023-03-24T02:09:01.416Z,16.57
2023-03-24T02:11:32.377Z,16.49
2023-03-24T02:14:00.477Z,16.42
2023-03-24T02:16:48.516Z,16.49
2023-03-24T02:19:47.676Z,16.50
2023-03-24T02:22:48.171Z,16.50
2023-03-24T02:25:51.899Z,16.49
2023-03-24T02:28:32.217Z,16.51
2023-03-24T02:31:29.710Z,16.47
2023-03-24T02:34:41.419Z,16.40
2023-03-24T02:37:43.904Z,16.40
2023-03-24T02:40:51.138Z,16.33
2023-03-24T02:43:29.552Z,16.29
2023-03-24T02:46:13.974Z,16.24
2023-03-24T02:48:54.005Z,16.16
2023-03-24T02:51:25.266Z,16.16
2023-03-24T02:54:01.832Z,16.07
2023-03-24T02:56:39.639Z,16.05
2023-03-24T02:59:12.006Z,15.96
2023-03-24T03:01:45.754Z,15.89
2023-03-24T03:04:19.033Z,15.85
2023-03-24T03:06:53.330Z,15.80
2023-03-24T03:09:23.580Z,15.72
2023-03-24T03:11:57.690Z,15.71
2023-03-24T03:14:29.980Z,15.66
2023-03-24T03:17:02.759Z,15.59
2023-03-24T03:19:34.638Z,15.45
2023-03-24T03:22:06.069Z,15.40
2023-03-24T03:24:39.187Z,15.46
2023-03-24T03:27:15.266Z,15.42
2023-03-24T03:29:48.594Z,15.33
2023-03-24T03:32:25.395Z,15.31
2023-03-24T03:34:58.991Z,15.24
2023-03-24T03:37:34.373Z,15.21
2023-03-24T03:40:08.756Z,15.19
2023-03-24T03:42:38.700Z,15.17
2023-03-24T03:45:09.329Z,15.13
2023-03-24T03:47:37.690Z,15.13
2023-03-24T03:50:09.362Z,15.12
2023-03-24T03:52:38.602Z,15.07
2023-03-24T03:55:07.911Z,15.02
2023-03-24T03:57:38.382Z,14.97
2023-03-24T04:00:10.029Z,14.94
2023-03-24T04:02:51.442Z,14.92
2023-03-24T04:05:29.199Z,14.90
2023-03-24T04:08:10.153Z,14.87
2023-03-24T04:10:53.555Z,14.90
2023-03-24T04:13:30.489Z,14.87
2023-03-24T04:16:05.157Z,14.89
2023-03-24T04:18:46.977Z,14.82
2023-03-24T04:21:33.311Z,14.82
2023-03-24T04:24:14.051Z,14.82
2023-03-24T04:26:48.539Z,14.82
2023-03-24T04:29:27.570Z,14.84
2023-03-24T04:32:02.313Z,14.75
2023-03-24T04:34:35.722Z,14.77
2023-03-24T04:37:09.157Z,14.75
2023-03-24T04:39:40.380Z,14.76
2023-03-24T04:42:13.714Z,14.79
2023-03-24T04:44:43.910Z,14.71
2023-03-24T04:47:13.439Z,14.69
2023-03-24T04:49:41.236Z,14.70
2023-03-24T04:52:09.599Z,14.66
2023-03-24T04:54:37.312Z,14.63
2023-03-24T04:57:05.909Z,14.63
2023-03-24T04:59:34.755Z,14.65
2023-03-24T05:02:04.331Z,14.66
2023-03-24T05:04:32.006Z,14.64
2023-03-24T05:07:00.265Z,14.64
2023-03-24T05:09:27.956Z,14.65
2023-03-24T05:11:55.698Z,14.61
2023-03-24T05:14:24.059Z,14.58
2023-03-24T05:16:51.791Z,14.57
2023-03-24T05:19:20.954Z,14.59
2023-03-24T05:21:49.419Z,14.57
2023-03-24T05:24:17.095Z,14.57
2023-03-24T05:26:44.771Z,14.55
2023-03-24T05:29:12.957Z,14.56
2023-03-24T05:31:40.685Z,14.54
2023-03-24T05:34:08.378Z,14.53
2023-03-24T05:36:38.930Z,14.48
2023-03-24T05:39:06.616Z,14.40
2023-03-24T05:41:34.318Z,14.36
2023-03-24T05:44:02.393Z,14.36
2023-03-24T05:46:30.148Z,14.35
2023-03-24T05:48:59.871Z,14.31
2023-03-24T05:51:28.102Z,14.24
2023-03-24T05:53:57.143Z,14.17
2023-03-24T05:56:25.033Z,14.17
2023-03-24T05:58:53.460Z,14.17
2023-03-24T06:01:21.119Z,14.16
2023-03-24T06:03:49.168Z,14.12
2023-03-24T06:06:18.729Z,14.08
2023-03-24T06:08:46.467Z,14.08
2023-03-24T06:11:16.275Z,14.10
2023-03-24T06:13:44.531Z,14.09
2023-03-24T06:16:12.603Z,14.08
2023-03-24T06:18:42.665Z,14.07
2023-03-24T06:21:11.399Z,14.07
2023-03-24T06:23:39.304Z,14.10
2023-03-24T06:26:12.177Z,14.09
2023-03-24T06:28:42.106Z,14.10
2023-03-24T06:31:15.375Z,14.10
2023-03-24T06:33:43.505Z,14.09
2023-03-24T06:36:12.457Z,14.14
2023-03-24T06:38:40.967Z,14.16
2023-03-24T06:41:09.537Z,14.13
2023-03-24T06:43:37.255Z,14.15
2023-03-24T06:46:07.280Z,14.21
2023-03-24T06:48:34.960Z,14.20
2023-03-24T06:51:02.688Z,14.23
2023-03-24T06:53:31.012Z,14.21
2023-03-24T06:55:58.730Z,14.28
2023-03-24T06:58:26.494Z,14.23
2023-03-24T07:00:55.731Z,14.31
2023-03-24T07:03:25.217Z,14.30
2023-03-24T07:05:53.251Z,14.30
2023-03-24T07:10:52.175Z,14.36
2023-03-24T07:13:20.007Z,14.42
2023-03-24T07:15:48.242Z,14.47
2023-03-24T07:18:16.054Z,14.51
2023-03-24T07:20:45.368Z,14.58
2023-03-24T07:23:13.286Z,14.60
2023-03-24T07:25:41.398Z,14.65
2023-03-24T07:28:09.159Z,14.54
2023-03-24T07:33:27.261Z,14.54
2023-03-24T07:35:57.536Z,14.46
2023-03-24T07:38:25.625Z,14.45
2023-03-24T07:40:53.439Z,14.45
2023-03-24T07:43:22.067Z,14.44
2023-03-24T07:45:50.131Z,14.50
2023-03-24T07:48:17.987Z,14.50
2023-03-24T07:50:46.308Z,14.61
2023-03-24T07:53:19.949Z,14.62
2023-03-24T07:55:48.380Z,14.63
2023-03-24T07:58:16.484Z,14.69
2023-03-24T08:00:44.670Z,14.68
2023-03-24T08:03:15.563Z,14.70
2023-03-24T08:05:44.386Z,14.73
2023-03-24T08:08:12.094Z,14.79
2023-03-24T08:10:41.335Z,14.89
2023-03-24T08:13:08.991Z,14.89
2023-03-24T08:15:37.973Z,14.89
2023-03-24T08:18:06.523Z,15.02
2023-03-24T08:20:34.294Z,15.09
2023-03-24T08:23:04.516Z,15.20
2023-03-24T08:25:32.385Z,15.32
2023-03-24T08:28:01.461Z,15.36
2023-03-24T08:30:29.258Z,15.47
2023-03-24T08:33:00.969Z,15.49
2023-03-24T08:35:31.416Z,15.60
2023-03-24T08:37:59.504Z,15.65
2023-03-24T08:40:30.130Z,15.61
2023-03-24T08:42:59.802Z,15.68
2023-03-24T08:45:31.017Z,15.75
2023-03-24T08:48:00.925Z,15.76
2023-03-24T08:50:31.580Z,15.76
2023-03-24T08:52:59.862Z,15.83
2023-03-24T08:55:27.724Z,15.88
2023-03-24T08:57:56.246Z,15.96
2023-03-24T09:00:24.738Z,16.03
2023-03-24T09:02:56.247Z,16.15
2023-03-24T09:05:40.963Z,16.17
2023-03-24T09:08:15.469Z,16.29
2023-03-24T09:10:47.110Z,16.32
2023-03-24T09:13:16.013Z,16.32
2023-03-24T09:15:47.771Z,16.36
2023-03-24T09:18:17.690Z,16.40
2023-03-24T09:20:46.237Z,16.44
2023-03-24T09:23:14.334Z,16.45
2023-03-24T09:25:42.712Z,16.43
2023-03-24T09:28:10.938Z,16.44
2023-03-24T09:30:39.133Z,16.43
2023-03-24T09:33:07.457Z,16.38
2023-03-24T09:35:37.142Z,16.39
2023-03-24T09:38:05.356Z,16.42
2023-03-24T09:40:37.687Z,16.42
2023-03-24T09:43:08.077Z,16.39
2023-03-24T09:45:43.817Z,16.39
2023-03-24T09:48:19.217Z,16.36
2023-03-24T09:50:54.174Z,16.33
2023-03-24T09:53:32.004Z,16.35
2023-03-24T09:56:06.850Z,16.38
2023-03-24T09:58:35.716Z,16.37
2023-03-24T10:01:03.733Z,16.33
2023-03-24T10:03:32.527Z,16.32
2023-03-24T10:06:09.089Z,16.37
2023-03-24T10:08:38.463Z,16.34
2023-03-24T10:11:15.708Z,16.40
2023-03-24T10:13:53.998Z,16.42
2023-03-24T10:16:28.288Z,16.46
2023-03-24T10:19:05.144Z,16.51
2023-03-24T10:21:39.998Z,16.51
2023-03-24T10:24:17.794Z,16.61
2023-03-24T10:26:53.051Z,16.62
2023-03-24T10:29:26.339Z,16.43
2023-03-24T10:31:58.799Z,16.49
2023-03-24T10:34:31.171Z,16.52
2023-03-24T10:37:03.148Z,16.58
2023-03-24T10:39:44.082Z,16.70
2023-03-24T10:42:18.425Z,16.82
2023-03-24T10:44:48.299Z,16.87
2023-03-24T10:47:20.960Z,17.04
2023-03-24T10:49:58.629Z,17.11
2023-03-24T10:52:28.567Z,17.25
2023-03-24T10:54:58.928Z,17.33
2023-03-24T10:57:28.719Z,17.42
2023-03-24T11:00:01.007Z,17.47
2023-03-24T11:02:32.193Z,17.52
2023-03-24T11:05:04.268Z,17.58
2023-03-24T11:07:38.929Z,17.54
2023-03-24T11:10:16.241Z,17.56
2023-03-24T11:13:00.044Z,17.54
2023-03-24T11:15:31.062Z,17.53
2023-03-24T11:18:01.836Z,17.52
2023-03-24T11:20:34.384Z,17.46
2023-03-24T11:23:07.703Z,17.43
2023-03-24T11:25:38.908Z,17.37
2023-03-24T11:28:10.643Z,17.41
2023-03-24T11:30:47.932Z,17.39
2023-03-24T11:33:34.933Z,17.48
2023-03-24T11:36:11.070Z,17.55
2023-03-24T11:38:41.236Z,17.62
2023-03-24T11:41:23.064Z,17.72
2023-03-24T11:43:51.151Z,17.76
2023-03-24T11:46:24.023Z,17.84
2023-03-24T11:48:57.125Z,17.92
2023-03-24T11:51:29.911Z,17.91
2023-03-24T11:54:01.153Z,17.97
2023-03-24T11:56:39.466Z,18.00
2023-03-24T11:59:32.086Z,18.03
2023-03-24T12:02:12.445Z,18.06
2023-03-24T12:04:57.872Z,18.05
2023-03-24T12:08:01.502Z,17.99
2023-03-24T12:10:42.291Z,18.03
2023-03-24T12:13:29.560Z,18.01
2023-03-24T12:16:09.328Z,17.99
2023-03-24T12:18:50.614Z,17.99
2023-03-24T12:21:30.450Z,18.00
2023-03-24T12:24:02.302Z,18.02
2023-03-24T12:26:32.808Z,18.11
2023-03-24T12:29:19.029Z,18.04
2023-03-24T12:32:02.281Z,18.01
2023-03-24T12:34:54.140Z,18.11
2023-03-24T12:37:32.734Z,18.15
2023-03-24T12:40:17.129Z,18.20
2023-03-24T12:42:47.865Z,18.19
2023-03-24T12:45:33.083Z,18.07
2023-03-24T12:48:19.502Z,18.18
2023-03-24T12:51:00.323Z,18.22
2023-03-24T12:53:53.715Z,18.27
2023-03-24T12:56:28.851Z,18.23
2023-03-24T12:59:02.828Z,18.14
2023-03-24T13:01:36.715Z,18.07
2023-03-24T13:04:11.540Z,17.95
2023-03-24T13:06:46.256Z,17.87
2023-03-24T13:09:31.598Z,17.76
2023-03-24T13:12:04.638Z,17.65
2023-03-24T13:14:47.762Z,17.56
2023-03-24T13:17:21.930Z,17.36
2023-03-24T13:19:53.087Z,17.22
2023-03-24T13:22:24.467Z,17.09
2023-03-24T13:24:55.777Z,16.97
2023-03-24T13:27:25.882Z,16.83
2023-03-24T13:30:14.595Z,16.63
2023-03-24T13:32:46.063Z,16.49
2023-03-24T13:35:21.402Z,16.35
2023-03-24T13:37:54.079Z,16.31
2023-03-24T13:40:25.047Z,16.29
2023-03-24T13:42:56.673Z,16.27
2023-03-24T13:45:34.530Z,16.32
2023-03-24T13:48:17.761Z,16.36
2023-03-24T13:50:55.980Z,16.44
2023-03-24T13:53:34.060Z,16.50
2023-03-24T13:56:04.934Z,16.58
2023-03-24T13:59:08.302Z,16.66
2023-03-24T14:01:40.051Z,16.71
2023-03-24T14:04:45.246Z,16.81
2023-03-24T14:07:31.913Z,16.87
2023-03-24T14:10:02.233Z,16.88
2023-03-24T14:12:34.435Z,16.90
2023-03-24T14:15:21.856Z,16.86
2023-03-24T14:17:56.626Z,16.85
2023-03-24T14:20:36.655Z,16.84
2023-03-24T14:23:05.352Z,16.83
2023-03-24T14:25:37.349Z,16.76
2023-03-24T14:28:21.512Z,16.83
2023-03-24T14:31:13.618Z,16.79
2023-03-24T14:34:02.388Z,16.85
2023-03-24T14:36:32.922Z,16.87
2023-03-24T14:39:12.582Z,16.89
2023-03-24T14:41:41.910Z,16.87
2023-03-24T14:44:10.268Z,16.87
2023-03-24T14:46:41.307Z,16.92
2023-03-24T14:49:29.750Z,16.88
2023-03-24T14:52:03.564Z,16.89
2023-03-24T14:54:38.312Z,16.91
2023-03-24T14:57:08.195Z,16.89
2023-03-24T14:59:47.435Z,16.94
2023-03-24T15:02:28.434Z,16.97
2023-03-24T15:05:31.279Z,16.92
2023-03-24T15:08:13.401Z,16.92
2023-03-24T15:10:46.455Z,16.97
2023-03-24T15:13:35.544Z,16.89
2023-03-24T15:16:08.423Z,16.89
2023-03-24T15:18:38.828Z,16.91
2023-03-24T15:21:23.736Z,16.96
2023-03-24T15:23:52.047Z,17.02
2023-03-24T15:26:22.593Z,17.03
2023-03-24T15:29:01.419Z,17.06
2023-03-24T15:31:31.399Z,17.06
2023-03-24T15:34:08.440Z,17.11
2023-03-24T15:36:41.135Z,17.19
2023-03-24T15:39:21.305Z,17.22
2023-03-24T15:41:53.361Z,17.20
2023-03-24T15:44:23.596Z,17.17
2023-03-24T15:46:52.043Z,17.17
2023-03-24T15:49:26.265Z,17.19
2023-03-24T15:51:59.364Z,17.18
2023-03-24T15:54:31.552Z,17.16
2023-03-24T15:57:12.217Z,17.11
2023-03-24T15:59:47.189Z,17.08
2023-03-24T16:02:31.224Z,17.03
2023-03-24T16:05:11.046Z,16.99
2023-03-24T16:07:42.823Z,16.94
2023-03-24T16:10:33.452Z,16.93
2023-03-24T16:13:14.619Z,16.89
2023-03-24T16:15:45.312Z,16.81
2023-03-24T16:18:19.867Z,16.81
2023-03-24T16:20:48.630Z,16.79
2023-03-24T16:23:18.763Z,16.80
2023-03-24T16:25:46.784Z,16.80
2023-03-24T16:28:19.447Z,16.82
2023-03-24T16:30:51.326Z,16.83
2023-03-24T16:33:20.848Z,16.80
2023-03-24T16:35:51.273Z,16.81
2023-03-24T16:38:22.088Z,16.81
2023-03-24T16:40:51.851Z,16.79
2023-03-24T16:43:20.944Z,16.83
2023-03-24T16:45:50.161Z,16.80
2023-03-24T16:48:18.741Z,16.83
2023-03-24T16:50:50.608Z,16.84
2023-03-24T16:53:21.381Z,16.78
2023-03-24T16:55:50.006Z,16.64
2023-03-24T16:58:18.973Z,16.65
2023-03-24T17:00:49.242Z,16.57
2023-03-24T17:03:18.398Z,16.54
2023-03-24T17:05:48.861Z,16.45
2023-03-24T17:08:18.781Z,16.35
2023-03-24T17:10:50.478Z,16.24
2023-03-24T17:13:21.352Z,16.12
2023-03-24T17:15:49.725Z,15.84
2023-03-24T17:18:17.936Z,15.65
2023-03-24T17:20:46.481Z,15.47
2023-03-24T17:23:18.761Z,15.36
2023-03-24T17:25:50.162Z,15.24
2023-03-24T17:28:18.804Z,15.18
2023-03-24T17:30:47.175Z,15.06
2023-03-24T17:33:16.765Z,14.99
2023-03-24T17:35:47.022Z,14.90
2023-03-24T17:38:16.764Z,14.83
2023-03-24T17:40:46.758Z,14.79
2023-03-24T17:43:16.377Z,14.73
2023-03-24T17:45:44.958Z,14.70
2023-03-24T17:48:13.279Z,14.69
2023-03-24T17:50:41.717Z,14.62
2023-03-24T17:53:14.113Z,14.63
2023-03-24T17:55:42.224Z,14.60
2023-03-24T17:58:10.836Z,14.56
2023-03-24T18:00:42.000Z,14.55
2023-03-24T18:03:10.040Z,14.53
2023-03-24T18:05:38.241Z,14.50
2023-03-24T18:08:07.602Z,14.48
2023-03-24T18:10:36.332Z,14.44
2023-03-24T18:13:05.030Z,14.42
2023-03-24T18:15:34.308Z,14.41
2023-03-24T18:18:04.338Z,14.44
2023-03-24T18:20:32.967Z,14.41
2023-03-24T18:23:01.565Z,14.42
2023-03-24T18:25:30.013Z,14.39
2023-03-24T18:27:58.988Z,14.40
2023-03-24T18:30:27.690Z,14.38
2023-03-24T18:32:56.080Z,14.38
2023-03-24T18:35:25.787Z,14.34
2023-03-24T18:37:54.142Z,14.34
2023-03-24T18:40:22.488Z,14.33
2023-03-24T18:42:51.014Z,14.31
2023-03-24T18:45:20.121Z,14.27
2023-03-24T18:47:48.747Z,14.22
2023-03-24T18:50:16.956Z,14.19
2023-03-24T18:52:47.004Z,14.17
2023-03-24T18:55:18.211Z,14.16
2023-03-24T18:57:46.405Z,14.17
2023-03-24T19:00:16.983Z,14.18
2023-03-24T19:02:45.506Z,14.17
2023-03-24T19:05:17.514Z,14.13
2023-03-24T19:07:48.658Z,14.09
2023-03-24T19:10:17.961Z,14.04
2023-03-24T19:12:46.577Z,14.03
2023-03-24T19:15:14.770Z,14.02
2023-03-24T19:17:43.581Z,14.03
2023-03-24T19:20:12.558Z,14.02
2023-03-24T19:22:41.676Z,14.02
2023-03-24T19:25:12.275Z,14.00
2023-03-24T19:27:40.391Z,13.99
2023-03-24T19:30:09.762Z,13.99
2023-03-24T19:32:38.436Z,13.96
2023-03-24T19:35:08.434Z,13.97
2023-03-24T19:37:37.769Z,13.96
2023-03-24T19:40:11.815Z,13.91
2023-03-24T19:42:42.695Z,13.92
2023-03-24T19:45:12.425Z,13.90
2023-03-24T19:47:40.600Z,13.90
2023-03-24T19:50:10.432Z,13.88
2023-03-24T19:52:38.756Z,13.82
2023-03-24T19:55:07.987Z,13.82
2023-03-24T19:57:36.813Z,13.82
2023-03-24T20:00:10.264Z,13.79
2023-03-24T20:02:39.687Z,13.76
2023-03-24T20:05:08.691Z,13.75
2023-03-24T20:07:38.393Z,13.64
2023-03-24T20:10:07.131Z,13.76
2023-03-24T20:12:35.725Z,13.61
2023-03-24T20:15:04.232Z,13.61
2023-03-24T20:17:37.788Z,13.57
2023-03-24T20:20:07.840Z,13.54
2023-03-24T20:22:36.673Z,13.53
2023-03-24T20:25:06.088Z,13.56
2023-03-24T20:27:34.306Z,13.58
2023-03-24T20:30:03.623Z,13.59
2023-03-24T20:32:33.869Z,13.56
2023-03-24T20:35:02.271Z,13.55
2023-03-24T20:37:32.396Z,13.56
2023-03-24T20:40:01.121Z,13.57
2023-03-24T20:42:29.350Z,13.57
2023-03-24T20:44:57.845Z,13.56
2023-03-24T20:47:26.557Z,13.55
2023-03-24T20:49:56.451Z,13.48
2023-03-24T20:52:24.772Z,13.48
2023-03-24T20:54:54.794Z,13.45
2023-03-24T20:57:25.974Z,13.46
2023-03-24T20:59:54.284Z,13.45
2023-03-24T21:02:22.850Z,13.48
2023-03-24T21:04:51.371Z,13.46
2023-03-24T21:07:22.231Z,13.43
2023-03-24T21:09:50.862Z,13.44
2023-03-24T21:12:19.325Z,13.36
2023-03-24T21:14:47.798Z,13.34
2023-03-24T21:17:19.344Z,13.36
2023-03-24T21:19:47.766Z,13.31
2023-03-24T21:22:16.281Z,13.30
2023-03-24T21:24:46.227Z,13.28
2023-03-24T21:27:14.259Z,13.33
2023-03-24T21:29:42.493Z,13.30
2023-03-24T21:32:11.482Z,13.29
2023-03-24T21:34:39.564Z,13.27
2023-03-24T21:37:10.012Z,13.20
2023-03-24T21:39:38.144Z,13.19
2023-03-24T21:42:07.716Z,13.19
2023-03-24T21:44:35.864Z,13.20
2023-03-24T21:47:04.560Z,13.21
2023-03-24T21:49:33.616Z,13.20
2023-03-24T21:52:04.538Z,13.15
2023-03-24T21:54:33.471Z,13.19
2023-03-24T21:57:01.855Z,13.16
2023-03-24T21:59:32.296Z,13.14
2023-03-24T22:02:00.440Z,13.12
2023-03-24T22:04:28.541Z,13.15
2023-03-24T22:06:56.831Z,13.14
2023-03-24T22:09:27.576Z,13.06
2023-03-24T22:11:57.480Z,13.13
2023-03-24T22:14:25.749Z,13.09
2023-03-24T22:16:55.172Z,13.09
2023-03-24T22:19:23.706Z,13.09
2023-03-24T22:21:57.221Z,13.11
2023-03-24T22:24:25.579Z,13.13
2023-03-24T22:26:53.846Z,13.13
2023-03-24T22:29:21.878Z,13.09
2023-03-24T22:31:50.370Z,13.12
2023-03-24T22:34:19.900Z,13.11
2023-03-24T22:36:48.021Z,13.15
2023-03-24T22:39:16.830Z,13.09
2023-03-24T22:41:45.467Z,13.12
2023-03-24T22:44:13.564Z,13.18
2023-03-24T22:46:41.713Z,13.23
2023-03-24T22:49:09.893Z,13.19
2023-03-24T22:51:39.270Z,13.20
2023-03-24T22:54:07.944Z,13.20
2023-03-24T22:56:36.154Z,13.17
2023-03-24T22:59:04.539Z,13.23
2023-03-24T23:01:33.397Z,13.23
2023-03-24T23:04:01.764Z,13.22
2023-03-24T23:06:30.204Z,13.06
2023-03-24T23:09:00.863Z,13.14
2023-03-24T23:11:29.037Z,13.13
2023-03-24T23:14:05.811Z,13.13
2023-03-24T23:16:37.721Z,13.02
2023-03-24T23:19:07.401Z,13.01
2023-03-24T23:21:36.269Z,13.01
2023-03-24T23:24:06.482Z,13.05
2023-03-24T23:26:35.361Z,13.06
2023-03-24T23:29:03.608Z,13.05
2023-03-24T23:31:31.809Z,13.10
2023-03-24T23:34:00.839Z,13.06
2023-03-24T23:36:29.073Z,13.06
2023-03-24T23:38:57.331Z,13.00
2023-03-24T23:41:27.538Z,13.00
2023-03-24T23:43:56.005Z,12.96
2023-03-24T23:46:25.080Z,12.93
2023-03-24T23:48:53.513Z,12.96
2023-03-24T23:51:22.208Z,12.81
2023-03-24T23:53:50.328Z,12.78
2023-03-24T23:56:22.067Z,12.79
2023-03-24T23:58:52.250Z,12.87
